sensor_id;sensor_type;location;lat;lon;timestamp;P1;durP1;ratioP1;P2;durP2;ratioP2
24715;SDS011;12822;50.124;8.678;2022-08-19T00:00:18;18.65;;;15.50;;
24715;SDS011;12822;50.124;8.678;2022-08-19T00:02:44;21.73;;;16.35;;
24715;SDS011;12822;50.124;8.678;2022-08-19T00:05:11;21.38;;;16.60;;
24715;SDS011;12822;50.124;8.678;2022-08-19T00:07:38;20.77;;;16.42;;
24715;SDS011;12822;50.124;8.678;2022-08-19T00:10:05;20.27;;;15.93;;
24715;SDS011;12822;50.124;8.678;2022-08-19T00:12:32;21.65;;;15.50;;
24715;SDS011;12822;50.124;8.678;2022-08-19T00:14:58;20.88;;;15.88;;
24715;SDS011;12822;50.124;8.678;2022-08-19T00:17:24;21.02;;;17.40;;
24715;SDS011;12822;50.124;8.678;2022-08-19T00:19:50;19.52;;;16.42;;
24715;SDS011;12822;50.124;8.678;2022-08-19T00:22:16;22.02;;;16.25;;
24715;SDS011;12822;50.124;8.678;2022-08-19T00:24:43;20.77;;;15.25;;
24715;SDS011;12822;50.124;8.678;2022-08-19T00:27:10;24.60;;;16.08;;
24715;SDS011;12822;50.124;8.678;2022-08-19T00:29:36;23.60;;;16.00;;
24715;SDS011;12822;50.124;8.678;2022-08-19T00:32:02;23.52;;;16.52;;
24715;SDS011;12822;50.124;8.678;2022-08-19T00:34:50;20.73;;;16.40;;
24715;SDS011;12822;50.124;8.678;2022-08-19T00:37:18;19.92;;;16.77;;
24715;SDS011;12822;50.124;8.678;2022-08-19T00:39:47;23.02;;;16.83;;
24715;SDS011;12822;50.124;8.678;2022-08-19T00:42:13;21.33;;;17.55;;
24715;SDS011;12822;50.124;8.678;2022-08-19T00:44:40;21.35;;;16.42;;
24715;SDS011;12822;50.124;8.678;2022-08-19T00:47:06;24.30;;;17.17;;
24715;SDS011;12822;50.124;8.678;2022-08-19T00:49:46;20.08;;;15.98;;
24715;SDS011;12822;50.124;8.678;2022-08-19T00:52:35;19.13;;;16.05;;
24715;SDS011;12822;50.124;8.678;2022-08-19T00:55:03;24.40;;;16.95;;
24715;SDS011;12822;50.124;8.678;2022-08-19T00:57:30;20.95;;;16.40;;
24715;SDS011;12822;50.124;8.678;2022-08-19T00:59:58;19.92;;;16.23;;
24715;SDS011;12822;50.124;8.678;2022-08-19T01:02:25;20.90;;;16.45;;
24715;SDS011;12822;50.124;8.678;2022-08-19T01:04:52;20.60;;;15.60;;
24715;SDS011;12822;50.124;8.678;2022-08-19T01:07:18;21.77;;;15.90;;
24715;SDS011;12822;50.124;8.678;2022-08-19T01:09:44;18.95;;;15.57;;
24715;SDS011;12822;50.124;8.678;2022-08-19T01:12:10;18.60;;;15.25;;
24715;SDS011;12822;50.124;8.678;2022-08-19T01:14:36;20.13;;;15.43;;
24715;SDS011;12822;50.124;8.678;2022-08-19T01:17:04;19.13;;;15.50;;
24715;SDS011;12822;50.124;8.678;2022-08-19T01:19:32;23.23;;;16.40;;
24715;SDS011;12822;50.124;8.678;2022-08-19T01:22:03;22.60;;;15.50;;
24715;SDS011;12822;50.124;8.678;2022-08-19T01:24:31;23.17;;;15.82;;
24715;SDS011;12822;50.124;8.678;2022-08-19T01:26:57;20.85;;;15.60;;
24715;SDS011;12822;50.124;8.678;2022-08-19T01:29:24;20.27;;;14.23;;
24715;SDS011;12822;50.124;8.678;2022-08-19T01:31:50;19.30;;;14.70;;
24715;SDS011;12822;50.124;8.678;2022-08-19T01:34:18;16.45;;;14.30;;
24715;SDS011;12822;50.124;8.678;2022-08-19T01:36:46;22.15;;;16.30;;
24715;SDS011;12822;50.124;8.678;2022-08-19T01:39:18;19.17;;;15.05;;
24715;SDS011;12822;50.124;8.678;2022-08-19T01:41:45;19.23;;;14.60;;
24715;SDS011;12822;50.124;8.678;2022-08-19T01:44:11;21.38;;;14.98;;
24715;SDS011;12822;50.124;8.678;2022-08-19T01:46:41;19.50;;;14.63;;
24715;SDS011;12822;50.124;8.678;2022-08-19T01:49:08;18.98;;;14.13;;
24715;SDS011;12822;50.124;8.678;2022-08-19T01:51:35;17.60;;;14.82;;
24715;SDS011;12822;50.124;8.678;2022-08-19T01:54:01;21.73;;;15.73;;
24715;SDS011;12822;50.124;8.678;2022-08-19T01:56:27;20.50;;;14.88;;
24715;SDS011;12822;50.124;8.678;2022-08-19T01:58:54;18.67;;;14.75;;
24715;SDS011;12822;50.124;8.678;2022-08-19T02:01:21;17.75;;;14.55;;
24715;SDS011;12822;50.124;8.678;2022-08-19T02:03:46;16.02;;;13.65;;
24715;SDS011;12822;50.124;8.678;2022-08-19T02:06:13;22.95;;;14.07;;
24715;SDS011;12822;50.124;8.678;2022-08-19T02:08:39;19.80;;;14.75;;
24715;SDS011;12822;50.124;8.678;2022-08-19T02:11:06;19.27;;;13.73;;
24715;SDS011;12822;50.124;8.678;2022-08-19T02:13:32;18.95;;;13.70;;
24715;SDS011;12822;50.124;8.678;2022-08-19T02:16:02;20.38;;;14.35;;
24715;SDS011;12822;50.124;8.678;2022-08-19T02:18:28;15.20;;;13.38;;
24715;SDS011;12822;50.124;8.678;2022-08-19T02:20:54;20.08;;;13.00;;
24715;SDS011;12822;50.124;8.678;2022-08-19T02:23:20;19.00;;;13.98;;
24715;SDS011;12822;50.124;8.678;2022-08-19T02:25:47;18.98;;;14.05;;
24715;SDS011;12822;50.124;8.678;2022-08-19T02:28:13;18.77;;;13.88;;
24715;SDS011;12822;50.124;8.678;2022-08-19T02:30:40;20.10;;;14.57;;
24715;SDS011;12822;50.124;8.678;2022-08-19T02:33:06;17.75;;;13.95;;
24715;SDS011;12822;50.124;8.678;2022-08-19T02:35:32;17.88;;;14.15;;
24715;SDS011;12822;50.124;8.678;2022-08-19T02:37:58;16.27;;;14.18;;
24715;SDS011;12822;50.124;8.678;2022-08-19T02:40:50;21.27;;;13.25;;
24715;SDS011;12822;50.124;8.678;2022-08-19T02:43:17;16.40;;;13.90;;
24715;SDS011;12822;50.124;8.678;2022-08-19T02:45:45;19.25;;;14.52;;
24715;SDS011;12822;50.124;8.678;2022-08-19T02:48:13;20.15;;;13.70;;
24715;SDS011;12822;50.124;8.678;2022-08-19T02:50:39;27.55;;;14.18;;
24715;SDS011;12822;50.124;8.678;2022-08-19T02:53:06;19.52;;;13.63;;
24715;SDS011;12822;50.124;8.678;2022-08-19T02:55:33;18.25;;;13.10;;
24715;SDS011;12822;50.124;8.678;2022-08-19T02:57:59;19.38;;;13.27;;
24715;SDS011;12822;50.124;8.678;2022-08-19T03:00:26;15.50;;;12.55;;
24715;SDS011;12822;50.124;8.678;2022-08-19T03:02:52;19.35;;;13.35;;
24715;SDS011;12822;50.124;8.678;2022-08-19T03:05:18;18.52;;;13.48;;
24715;SDS011;12822;50.124;8.678;2022-08-19T03:07:44;15.63;;;12.95;;
24715;SDS011;12822;50.124;8.678;2022-08-19T03:10:12;18.27;;;13.00;;
24715;SDS011;12822;50.124;8.678;2022-08-19T03:12:38;14.15;;;12.43;;
24715;SDS011;12822;50.124;8.678;2022-08-19T03:15:05;18.98;;;12.35;;
24715;SDS011;12822;50.124;8.678;2022-08-19T03:17:32;16.38;;;12.77;;
24715;SDS011;12822;50.124;8.678;2022-08-19T03:19:58;19.10;;;13.13;;
24715;SDS011;12822;50.124;8.678;2022-08-19T03:22:24;16.15;;;13.80;;
24715;SDS011;12822;50.124;8.678;2022-08-19T03:24:50;16.80;;;12.82;;
24715;SDS011;12822;50.124;8.678;2022-08-19T03:27:17;17.95;;;13.50;;
24715;SDS011;12822;50.124;8.678;2022-08-19T03:29:43;17.80;;;12.35;;
24715;SDS011;12822;50.124;8.678;2022-08-19T03:32:10;15.73;;;12.02;;
24715;SDS011;12822;50.124;8.678;2022-08-19T03:34:37;14.13;;;11.90;;
24715;SDS011;12822;50.124;8.678;2022-08-19T03:37:04;20.05;;;12.68;;
24715;SDS011;12822;50.124;8.678;2022-08-19T03:39:31;18.35;;;12.18;;
24715;SDS011;12822;50.124;8.678;2022-08-19T03:41:57;16.58;;;12.27;;
24715;SDS011;12822;50.124;8.678;2022-08-19T03:44:27;15.98;;;11.73;;
24715;SDS011;12822;50.124;8.678;2022-08-19T03:46:54;18.45;;;11.90;;
24715;SDS011;12822;50.124;8.678;2022-08-19T03:49:21;17.50;;;12.30;;
24715;SDS011;12822;50.124;8.678;2022-08-19T03:51:47;16.63;;;11.90;;
24715;SDS011;12822;50.124;8.678;2022-08-19T03:54:15;16.77;;;11.60;;
24715;SDS011;12822;50.124;8.678;2022-08-19T03:56:42;14.75;;;11.90;;
24715;SDS011;12822;50.124;8.678;2022-08-19T03:59:09;18.58;;;11.48;;
24715;SDS011;12822;50.124;8.678;2022-08-19T04:01:36;16.85;;;12.15;;
24715;SDS011;12822;50.124;8.678;2022-08-19T04:04:02;19.00;;;13.00;;
24715;SDS011;12822;50.124;8.678;2022-08-19T04:06:30;16.00;;;12.32;;
24715;SDS011;12822;50.124;8.678;2022-08-19T04:08:57;15.98;;;12.27;;
24715;SDS011;12822;50.124;8.678;2022-08-19T04:11:28;20.40;;;12.68;;
24715;SDS011;12822;50.124;8.678;2022-08-19T04:13:54;16.58;;;12.20;;
24715;SDS011;12822;50.124;8.678;2022-08-19T04:16:21;14.15;;;11.73;;
24715;SDS011;12822;50.124;8.678;2022-08-19T04:18:48;19.85;;;13.30;;
24715;SDS011;12822;50.124;8.678;2022-08-19T04:21:18;15.43;;;12.32;;
24715;SDS011;12822;50.124;8.678;2022-08-19T04:23:44;16.48;;;12.48;;
24715;SDS011;12822;50.124;8.678;2022-08-19T04:26:14;18.13;;;12.20;;
24715;SDS011;12822;50.124;8.678;2022-08-19T04:28:40;16.60;;;11.80;;
24715;SDS011;12822;50.124;8.678;2022-08-19T04:31:11;20.55;;;12.82;;
24715;SDS011;12822;50.124;8.678;2022-08-19T04:36:04;17.58;;;12.20;;
24715;SDS011;12822;50.124;8.678;2022-08-19T04:38:30;16.60;;;11.77;;
24715;SDS011;12822;50.124;8.678;2022-08-19T04:40:56;15.07;;;11.35;;
24715;SDS011;12822;50.124;8.678;2022-08-19T04:43:40;17.20;;;12.68;;
24715;SDS011;12822;50.124;8.678;2022-08-19T04:46:07;16.85;;;12.20;;
24715;SDS011;12822;50.124;8.678;2022-08-19T04:48:34;17.13;;;11.98;;
24715;SDS011;12822;50.124;8.678;2022-08-19T04:51:00;18.58;;;13.43;;
24715;SDS011;12822;50.124;8.678;2022-08-19T04:53:26;15.15;;;11.48;;
24715;SDS011;12822;50.124;8.678;2022-08-19T04:55:57;15.90;;;12.18;;
24715;SDS011;12822;50.124;8.678;2022-08-19T04:58:26;13.70;;;11.63;;
24715;SDS011;12822;50.124;8.678;2022-08-19T05:00:53;16.42;;;12.13;;
24715;SDS011;12822;50.124;8.678;2022-08-19T05:03:19;18.20;;;12.85;;
24715;SDS011;12822;50.124;8.678;2022-08-19T05:05:46;14.40;;;12.00;;
24715;SDS011;12822;50.124;8.678;2022-08-19T05:08:16;18.45;;;11.80;;
24715;SDS011;12822;50.124;8.678;2022-08-19T05:10:44;16.08;;;12.30;;
24715;SDS011;12822;50.124;8.678;2022-08-19T05:13:11;15.05;;;11.82;;
24715;SDS011;12822;50.124;8.678;2022-08-19T05:15:38;18.75;;;12.40;;
24715;SDS011;12822;50.124;8.678;2022-08-19T05:18:04;18.42;;;11.57;;
24715;SDS011;12822;50.124;8.678;2022-08-19T05:20:48;15.43;;;11.82;;
24715;SDS011;12822;50.124;8.678;2022-08-19T05:23:33;15.07;;;12.00;;
24715;SDS011;12822;50.124;8.678;2022-08-19T05:25:59;18.30;;;12.48;;
24715;SDS011;12822;50.124;8.678;2022-08-19T05:28:25;18.00;;;11.80;;
24715;SDS011;12822;50.124;8.678;2022-08-19T05:30:52;15.35;;;11.50;;
24715;SDS011;12822;50.124;8.678;2022-08-19T05:33:20;20.02;;;11.82;;
24715;SDS011;12822;50.124;8.678;2022-08-19T05:35:46;16.13;;;11.68;;
24715;SDS011;12822;50.124;8.678;2022-08-19T05:38:13;15.73;;;11.80;;
24715;SDS011;12822;50.124;8.678;2022-08-19T05:40:39;14.27;;;11.45;;
24715;SDS011;12822;50.124;8.678;2022-08-19T05:43:06;19.05;;;11.20;;
24715;SDS011;12822;50.124;8.678;2022-08-19T05:45:33;16.65;;;11.43;;
24715;SDS011;12822;50.124;8.678;2022-08-19T05:48:03;20.52;;;11.95;;
24715;SDS011;12822;50.124;8.678;2022-08-19T05:50:29;18.52;;;11.15;;
24715;SDS011;12822;50.124;8.678;2022-08-19T05:52:58;14.43;;;11.43;;
24715;SDS011;12822;50.124;8.678;2022-08-19T05:55:24;14.90;;;10.55;;
24715;SDS011;12822;50.124;8.678;2022-08-19T05:57:50;13.82;;;10.30;;
24715;SDS011;12822;50.124;8.678;2022-08-19T06:00:16;19.10;;;9.52;;
24715;SDS011;12822;50.124;8.678;2022-08-19T06:02:42;14.73;;;9.80;;
24715;SDS011;12822;50.124;8.678;2022-08-19T06:05:08;13.65;;;9.98;;
24715;SDS011;12822;50.124;8.678;2022-08-19T06:07:38;14.00;;;9.05;;
24715;SDS011;12822;50.124;8.678;2022-08-19T06:10:05;13.00;;;9.63;;
24715;SDS011;12822;50.124;8.678;2022-08-19T06:12:32;11.38;;;9.00;;
24715;SDS011;12822;50.124;8.678;2022-08-19T06:15:00;14.50;;;8.43;;
24715;SDS011;12822;50.124;8.678;2022-08-19T06:17:26;19.88;;;9.38;;
24715;SDS011;12822;50.124;8.678;2022-08-19T06:19:54;14.48;;;8.35;;
24715;SDS011;12822;50.124;8.678;2022-08-19T06:22:19;9.38;;;7.53;;
24715;SDS011;12822;50.124;8.678;2022-08-19T06:24:45;11.40;;;7.53;;
24715;SDS011;12822;50.124;8.678;2022-08-19T06:27:12;9.23;;;7.20;;
24715;SDS011;12822;50.124;8.678;2022-08-19T06:29:38;10.98;;;7.53;;
24715;SDS011;12822;50.124;8.678;2022-08-19T06:32:04;9.35;;;6.93;;
24715;SDS011;12822;50.124;8.678;2022-08-19T06:34:31;8.73;;;6.43;;
24715;SDS011;12822;50.124;8.678;2022-08-19T06:36:58;8.40;;;6.57;;
24715;SDS011;12822;50.124;8.678;2022-08-19T06:39:27;10.35;;;6.60;;
24715;SDS011;12822;50.124;8.678;2022-08-19T06:41:54;8.23;;;6.10;;
24715;SDS011;12822;50.124;8.678;2022-08-19T06:44:21;14.48;;;6.35;;
24715;SDS011;12822;50.124;8.678;2022-08-19T06:46:48;10.82;;;6.40;;
24715;SDS011;12822;50.124;8.678;2022-08-19T06:49:15;11.32;;;6.63;;
24715;SDS011;12822;50.124;8.678;2022-08-19T06:51:43;10.25;;;6.43;;
24715;SDS011;12822;50.124;8.678;2022-08-19T06:54:10;8.65;;;6.07;;
24715;SDS011;12822;50.124;8.678;2022-08-19T06:56:37;13.18;;;5.90;;
24715;SDS011;12822;50.124;8.678;2022-08-19T06:59:04;10.25;;;5.97;;
24715;SDS011;12822;50.124;8.678;2022-08-19T07:01:33;9.90;;;5.60;;
24715;SDS011;12822;50.124;8.678;2022-08-19T07:03:59;8.68;;;5.63;;
24715;SDS011;12822;50.124;8.678;2022-08-19T07:06:26;9.63;;;5.40;;
24715;SDS011;12822;50.124;8.678;2022-08-19T07:08:52;8.05;;;5.40;;
24715;SDS011;12822;50.124;8.678;2022-08-19T07:11:18;8.73;;;5.40;;
24715;SDS011;12822;50.124;8.678;2022-08-19T07:13:50;9.10;;;5.47;;
24715;SDS011;12822;50.124;8.678;2022-08-19T07:16:17;12.38;;;5.93;;
24715;SDS011;12822;50.124;8.678;2022-08-19T07:18:44;7.45;;;5.07;;
24715;SDS011;12822;50.124;8.678;2022-08-19T07:21:12;9.68;;;5.63;;
24715;SDS011;12822;50.124;8.678;2022-08-19T07:23:39;13.23;;;5.20;;
24715;SDS011;12822;50.124;8.678;2022-08-19T07:26:12;9.63;;;5.53;;
24715;SDS011;12822;50.124;8.678;2022-08-19T07:28:39;6.38;;;5.40;;
24715;SDS011;12822;50.124;8.678;2022-08-19T07:31:09;7.40;;;5.30;;
24715;SDS011;12822;50.124;8.678;2022-08-19T07:33:35;8.52;;;4.50;;
24715;SDS011;12822;50.124;8.678;2022-08-19T07:36:03;7.68;;;4.65;;
24715;SDS011;12822;50.124;8.678;2022-08-19T07:38:29;8.63;;;4.63;;
24715;SDS011;12822;50.124;8.678;2022-08-19T07:40:56;6.65;;;4.80;;
24715;SDS011;12822;50.124;8.678;2022-08-19T07:43:22;8.18;;;4.22;;
24715;SDS011;12822;50.124;8.678;2022-08-19T07:45:50;6.15;;;3.92;;
24715;SDS011;12822;50.124;8.678;2022-08-19T07:48:17;6.68;;;4.93;;
24715;SDS011;12822;50.124;8.678;2022-08-19T07:50:44;8.30;;;4.70;;
24715;SDS011;12822;50.124;8.678;2022-08-19T07:53:10;4.45;;;3.65;;
24715;SDS011;12822;50.124;8.678;2022-08-19T07:55:37;9.93;;;4.43;;
24715;SDS011;12822;50.124;8.678;2022-08-19T07:58:03;10.18;;;4.55;;
24715;SDS011;12822;50.124;8.678;2022-08-19T08:00:29;4.30;;;3.60;;
24715;SDS011;12822;50.124;8.678;2022-08-19T08:02:57;5.38;;;3.70;;
24715;SDS011;12822;50.124;8.678;2022-08-19T08:05:23;7.82;;;3.30;;
24715;SDS011;12822;50.124;8.678;2022-08-19T08:08:08;6.38;;;3.65;;
24715;SDS011;12822;50.124;8.678;2022-08-19T08:10:53;4.28;;;3.13;;
24715;SDS011;12822;50.124;8.678;2022-08-19T08:13:19;10.52;;;3.40;;
24715;SDS011;12822;50.124;8.678;2022-08-19T08:15:45;7.53;;;3.60;;
24715;SDS011;12822;50.124;8.678;2022-08-19T08:18:11;6.22;;;3.83;;
24715;SDS011;12822;50.124;8.678;2022-08-19T08:20:37;5.65;;;3.20;;
24715;SDS011;12822;50.124;8.678;2022-08-19T08:23:03;6.93;;;3.17;;
24715;SDS011;12822;50.124;8.678;2022-08-19T08:31:51;6.68;;;3.20;;
24715;SDS011;12822;50.124;8.678;2022-08-19T08:34:17;4.78;;;3.20;;
24715;SDS011;12822;50.124;8.678;2022-08-19T08:36:44;7.35;;;3.20;;
24715;SDS011;12822;50.124;8.678;2022-08-19T08:39:14;7.82;;;3.28;;
24715;SDS011;12822;50.124;8.678;2022-08-19T08:41:46;8.63;;;3.45;;
24715;SDS011;12822;50.124;8.678;2022-08-19T08:44:23;4.15;;;3.13;;
24715;SDS011;12822;50.124;8.678;2022-08-19T08:46:53;7.30;;;3.00;;
24715;SDS011;12822;50.124;8.678;2022-08-19T08:49:26;5.03;;;2.88;;
24715;SDS011;12822;50.124;8.678;2022-08-19T08:52:04;6.05;;;2.92;;
24715;SDS011;12822;50.124;8.678;2022-08-19T08:54:33;4.88;;;3.05;;
24715;SDS011;12822;50.124;8.678;2022-08-19T08:57:01;9.05;;;2.95;;
24715;SDS011;12822;50.124;8.678;2022-08-19T08:59:30;6.57;;;3.80;;
24715;SDS011;12822;50.124;8.678;2022-08-19T09:01:59;4.18;;;3.08;;
24715;SDS011;12822;50.124;8.678;2022-08-19T09:04:25;8.40;;;3.50;;
24715;SDS011;12822;50.124;8.678;2022-08-19T09:09:42;5.78;;;2.90;;
24715;SDS011;12822;50.124;8.678;2022-08-19T09:14:56;7.50;;;3.28;;
24715;SDS011;12822;50.124;8.678;2022-08-19T09:17:28;7.13;;;3.10;;
24715;SDS011;12822;50.124;8.678;2022-08-19T09:22:31;6.65;;;3.80;;
24715;SDS011;12822;50.124;8.678;2022-08-19T09:24:57;5.60;;;3.10;;
24715;SDS011;12822;50.124;8.678;2022-08-19T09:27:24;3.88;;;2.88;;
24715;SDS011;12822;50.124;8.678;2022-08-19T09:29:51;6.03;;;3.00;;
24715;SDS011;12822;50.124;8.678;2022-08-19T09:32:17;4.68;;;2.85;;
24715;SDS011;12822;50.124;8.678;2022-08-19T09:34:43;5.25;;;3.30;;
24715;SDS011;12822;50.124;8.678;2022-08-19T09:37:10;5.32;;;2.85;;
24715;SDS011;12822;50.124;8.678;2022-08-19T09:39:37;4.43;;;3.30;;
24715;SDS011;12822;50.124;8.678;2022-08-19T09:42:03;3.70;;;2.83;;
24715;SDS011;12822;50.124;8.678;2022-08-19T09:44:30;7.55;;;3.15;;
24715;SDS011;12822;50.124;8.678;2022-08-19T09:46:59;4.20;;;2.90;;
24715;SDS011;12822;50.124;8.678;2022-08-19T09:49:25;4.63;;;3.33;;
24715;SDS011;12822;50.124;8.678;2022-08-19T09:51:51;7.85;;;3.10;;
24715;SDS011;12822;50.124;8.678;2022-08-19T09:54:21;10.27;;;3.92;;
24715;SDS011;12822;50.124;8.678;2022-08-19T09:56:47;5.70;;;3.28;;
24715;SDS011;12822;50.124;8.678;2022-08-19T09:59:13;5.47;;;3.10;;
24715;SDS011;12822;50.124;8.678;2022-08-19T10:01:39;4.45;;;3.17;;
24715;SDS011;12822;50.124;8.678;2022-08-19T10:04:05;4.13;;;3.10;;
24715;SDS011;12822;50.124;8.678;2022-08-19T10:06:35;5.55;;;3.40;;
24715;SDS011;12822;50.124;8.678;2022-08-19T10:09:02;8.35;;;3.38;;
24715;SDS011;12822;50.124;8.678;2022-08-19T10:11:31;6.07;;;3.72;;
24715;SDS011;12822;50.124;8.678;2022-08-19T10:13:57;6.20;;;3.95;;
24715;SDS011;12822;50.124;8.678;2022-08-19T10:16:24;8.13;;;4.22;;
24715;SDS011;12822;50.124;8.678;2022-08-19T10:18:51;5.18;;;3.47;;
24715;SDS011;12822;50.124;8.678;2022-08-19T10:21:21;6.93;;;3.50;;
24715;SDS011;12822;50.124;8.678;2022-08-19T10:26:14;6.22;;;3.20;;
24715;SDS011;12822;50.124;8.678;2022-08-19T10:28:41;6.22;;;3.28;;
24715;SDS011;12822;50.124;8.678;2022-08-19T10:31:12;6.15;;;3.58;;
24715;SDS011;12822;50.124;8.678;2022-08-19T10:33:38;5.22;;;3.53;;
24715;SDS011;12822;50.124;8.678;2022-08-19T10:36:06;6.50;;;3.30;;
24715;SDS011;12822;50.124;8.678;2022-08-19T10:38:33;9.98;;;4.10;;
24715;SDS011;12822;50.124;8.678;2022-08-19T10:41:09;5.85;;;3.50;;
24715;SDS011;12822;50.124;8.678;2022-08-19T10:43:36;5.57;;;4.05;;
24715;SDS011;12822;50.124;8.678;2022-08-19T10:46:04;6.47;;;4.18;;
24715;SDS011;12822;50.124;8.678;2022-08-19T10:48:30;4.80;;;4.30;;
24715;SDS011;12822;50.124;8.678;2022-08-19T10:50:57;6.85;;;4.05;;
24715;SDS011;12822;50.124;8.678;2022-08-19T10:53:41;5.97;;;4.13;;
24715;SDS011;12822;50.124;8.678;2022-08-19T10:56:08;6.28;;;4.18;;
24715;SDS011;12822;50.124;8.678;2022-08-19T10:58:52;7.00;;;4.10;;
24715;SDS011;12822;50.124;8.678;2022-08-19T11:01:18;7.90;;;3.80;;
24715;SDS011;12822;50.124;8.678;2022-08-19T11:03:45;5.15;;;4.20;;
24715;SDS011;12822;50.124;8.678;2022-08-19T11:06:14;6.30;;;4.30;;
24715;SDS011;12822;50.124;8.678;2022-08-19T11:08:40;5.80;;;4.70;;
24715;SDS011;12822;50.124;8.678;2022-08-19T11:11:06;9.98;;;5.10;;
24715;SDS011;12822;50.124;8.678;2022-08-19T11:13:35;7.22;;;5.22;;
24715;SDS011;12822;50.124;8.678;2022-08-19T11:16:04;6.60;;;4.70;;
24715;SDS011;12822;50.124;8.678;2022-08-19T11:18:31;8.27;;;5.30;;
24715;SDS011;12822;50.124;8.678;2022-08-19T11:21:08;6.72;;;5.15;;
24715;SDS011;12822;50.124;8.678;2022-08-19T11:23:35;6.18;;;4.90;;
24715;SDS011;12822;50.124;8.678;2022-08-19T11:26:01;6.03;;;5.40;;
24715;SDS011;12822;50.124;8.678;2022-08-19T11:28:27;6.30;;;4.97;;
24715;SDS011;12822;50.124;8.678;2022-08-19T11:30:53;6.75;;;4.90;;
24715;SDS011;12822;50.124;8.678;2022-08-19T11:33:20;7.47;;;5.78;;
24715;SDS011;12822;50.124;8.678;2022-08-19T11:35:46;8.35;;;5.25;;
24715;SDS011;12822;50.124;8.678;2022-08-19T11:38:12;5.90;;;5.30;;
24715;SDS011;12822;50.124;8.678;2022-08-19T11:40:39;6.60;;;4.90;;
24715;SDS011;12822;50.124;8.678;2022-08-19T11:43:07;6.85;;;5.72;;
24715;SDS011;12822;50.124;8.678;2022-08-19T11:45:34;11.48;;;5.85;;
24715;SDS011;12822;50.124;8.678;2022-08-19T11:48:00;8.57;;;5.43;;
24715;SDS011;12822;50.124;8.678;2022-08-19T11:50:26;6.28;;;5.65;;
24715;SDS011;12822;50.124;8.678;2022-08-19T11:52:54;7.30;;;6.00;;
24715;SDS011;12822;50.124;8.678;2022-08-19T11:55:20;7.70;;;6.05;;
24715;SDS011;12822;50.124;8.678;2022-08-19T11:57:46;6.65;;;5.70;;
24715;SDS011;12822;50.124;8.678;2022-08-19T12:00:13;9.10;;;6.20;;
24715;SDS011;12822;50.124;8.678;2022-08-19T12:02:40;8.55;;;5.82;;
24715;SDS011;12822;50.124;8.678;2022-08-19T12:05:07;6.82;;;6.15;;
24715;SDS011;12822;50.124;8.678;2022-08-19T12:07:35;7.45;;;6.10;;
24715;SDS011;12822;50.124;8.678;2022-08-19T12:10:02;8.80;;;5.70;;
24715;SDS011;12822;50.124;8.678;2022-08-19T12:12:28;6.63;;;5.70;;
24715;SDS011;12822;50.124;8.678;2022-08-19T12:14:54;5.50;;;5.00;;
24715;SDS011;12822;50.124;8.678;2022-08-19T12:17:23;7.55;;;5.25;;
24715;SDS011;12822;50.124;8.678;2022-08-19T12:19:50;10.15;;;5.10;;
24715;SDS011;12822;50.124;8.678;2022-08-19T12:22:16;6.18;;;5.25;;
24715;SDS011;12822;50.124;8.678;2022-08-19T12:24:43;7.60;;;4.82;;
24715;SDS011;12822;50.124;8.678;2022-08-19T12:27:09;7.10;;;5.70;;
24715;SDS011;12822;50.124;8.678;2022-08-19T12:29:35;7.50;;;5.82;;
24715;SDS011;12822;50.124;8.678;2022-08-19T12:32:01;6.75;;;5.00;;
24715;SDS011;12822;50.124;8.678;2022-08-19T12:34:28;6.47;;;5.25;;
24715;SDS011;12822;50.124;8.678;2022-08-19T12:36:56;5.75;;;5.15;;
24715;SDS011;12822;50.124;8.678;2022-08-19T12:39:22;6.10;;;5.22;;
24715;SDS011;12822;50.124;8.678;2022-08-19T12:41:48;7.03;;;5.32;;
24715;SDS011;12822;50.124;8.678;2022-08-19T12:44:15;10.85;;;5.47;;
24715;SDS011;12822;50.124;8.678;2022-08-19T12:46:41;6.07;;;5.47;;
24715;SDS011;12822;50.124;8.678;2022-08-19T12:49:07;7.82;;;5.60;;
24715;SDS011;12822;50.124;8.678;2022-08-19T12:51:35;5.93;;;5.32;;
24715;SDS011;12822;50.124;8.678;2022-08-19T12:54:01;6.70;;;5.22;;
24715;SDS011;12822;50.124;8.678;2022-08-19T12:56:27;5.75;;;5.25;;
24715;SDS011;12822;50.124;8.678;2022-08-19T12:58:53;7.35;;;5.40;;
24715;SDS011;12822;50.124;8.678;2022-08-19T13:01:19;8.00;;;5.45;;
24715;SDS011;12822;50.124;8.678;2022-08-19T13:03:45;6.75;;;5.57;;
24715;SDS011;12822;50.124;8.678;2022-08-19T13:06:12;6.68;;;5.70;;
24715;SDS011;12822;50.124;8.678;2022-08-19T13:08:39;7.40;;;5.32;;
24715;SDS011;12822;50.124;8.678;2022-08-19T13:11:09;7.82;;;5.72;;
24715;SDS011;12822;50.124;8.678;2022-08-19T13:13:37;5.97;;;5.38;;
24715;SDS011;12822;50.124;8.678;2022-08-19T13:16:05;6.22;;;5.05;;
24715;SDS011;12822;50.124;8.678;2022-08-19T13:18:31;5.20;;;4.72;;
24715;SDS011;12822;50.124;8.678;2022-08-19T13:21:01;5.20;;;4.70;;
24715;SDS011;12822;50.124;8.678;2022-08-19T13:25:56;5.57;;;4.93;;
24715;SDS011;12822;50.124;8.678;2022-08-19T13:28:22;5.82;;;4.25;;
24715;SDS011;12822;50.124;8.678;2022-08-19T13:30:48;5.18;;;4.60;;
24715;SDS011;12822;50.124;8.678;2022-08-19T13:33:43;5.68;;;3.95;;
24715;SDS011;12822;50.124;8.678;2022-08-19T13:36:10;5.20;;;3.60;;
24715;SDS011;12822;50.124;8.678;2022-08-19T13:38:36;5.25;;;3.70;;
24715;SDS011;12822;50.124;8.678;2022-08-19T13:41:04;4.30;;;3.58;;
24715;SDS011;12822;50.124;8.678;2022-08-19T13:43:30;5.80;;;3.88;;
24715;SDS011;12822;50.124;8.678;2022-08-19T13:45:56;4.97;;;3.67;;
24715;SDS011;12822;50.124;8.678;2022-08-19T13:48:22;4.70;;;3.38;;
24715;SDS011;12822;50.124;8.678;2022-08-19T13:50:50;5.57;;;3.50;;
24715;SDS011;12822;50.124;8.678;2022-08-19T13:53:16;7.10;;;3.42;;
24715;SDS011;12822;50.124;8.678;2022-08-19T13:55:42;3.53;;;3.22;;
24715;SDS011;12822;50.124;8.678;2022-08-19T13:58:09;6.55;;;3.42;;
24715;SDS011;12822;50.124;8.678;2022-08-19T14:00:36;3.25;;;2.90;;
24715;SDS011;12822;50.124;8.678;2022-08-19T14:03:03;5.32;;;2.85;;
24715;SDS011;12822;50.124;8.678;2022-08-19T14:05:29;6.07;;;2.97;;
24715;SDS011;12822;50.124;8.678;2022-08-19T14:07:55;5.85;;;2.83;;
24715;SDS011;12822;50.124;8.678;2022-08-19T14:10:22;6.30;;;2.95;;
24715;SDS011;12822;50.124;8.678;2022-08-19T14:12:48;3.55;;;3.00;;
24715;SDS011;12822;50.124;8.678;2022-08-19T14:15:15;4.88;;;2.90;;
24715;SDS011;12822;50.124;8.678;2022-08-19T14:17:42;4.13;;;2.70;;
24715;SDS011;12822;50.124;8.678;2022-08-19T14:20:09;4.25;;;2.85;;
24715;SDS011;12822;50.124;8.678;2022-08-19T14:22:36;4.65;;;2.90;;
24715;SDS011;12822;50.124;8.678;2022-08-19T14:25:03;5.32;;;2.90;;
24715;SDS011;12822;50.124;8.678;2022-08-19T14:27:30;3.30;;;2.80;;
24715;SDS011;12822;50.124;8.678;2022-08-19T14:29:56;4.85;;;2.75;;
24715;SDS011;12822;50.124;8.678;2022-08-19T14:32:22;6.78;;;2.90;;
24715;SDS011;12822;50.124;8.678;2022-08-19T14:34:49;5.38;;;3.00;;
24715;SDS011;12822;50.124;8.678;2022-08-19T14:37:16;3.65;;;2.55;;
24715;SDS011;12822;50.124;8.678;2022-08-19T14:39:42;3.75;;;2.75;;
24715;SDS011;12822;50.124;8.678;2022-08-19T14:42:10;3.55;;;2.80;;
24715;SDS011;12822;50.124;8.678;2022-08-19T14:44:36;9.98;;;2.97;;
24715;SDS011;12822;50.124;8.678;2022-08-19T14:47:02;4.47;;;3.28;;
24715;SDS011;12822;50.124;8.678;2022-08-19T14:49:28;3.97;;;3.03;;
24715;SDS011;12822;50.124;8.678;2022-08-19T14:51:54;6.15;;;2.70;;
24715;SDS011;12822;50.124;8.678;2022-08-19T14:54:21;3.83;;;2.97;;
24715;SDS011;12822;50.124;8.678;2022-08-19T14:56:47;4.88;;;2.92;;
24715;SDS011;12822;50.124;8.678;2022-08-19T14:59:16;4.95;;;2.65;;